sensor_id;sensor_type;location;lat;lon;timestamp;P1;durP1;ratioP1;P2;durP2;ratioP2
10232;SDS011;5161;48.174;11.756;2023-10-09T00:02:08;22.20;;;6.70;;
10232;SDS011;5161;48.174;11.756;2023-10-09T00:04:35;16.20;;;7.03;;
10232;SDS011;5161;48.174;11.756;2023-10-09T00:07:02;18.17;;;7.10;;
10232;SDS011;5161;48.174;11.756;2023-10-09T00:09:32;14.47;;;6.17;;
10232;SDS011;5161;48.174;11.756;2023-10-09T00:12:20;16.97;;;6.60;;
10232;SDS011;5161;48.174;11.756;2023-10-09T00:14:50;14.40;;;6.70;;
10232;SDS011;5161;48.174;11.756;2023-10-09T00:17:35;18.33;;;6.23;;
10232;SDS011;5161;48.174;11.756;2023-10-09T00:20:03;17.90;;;6.50;;
10232;SDS011;5161;48.174;11.756;2023-10-09T00:22:43;17.60;;;6.23;;
10232;SDS011;5161;48.174;11.756;2023-10-09T00:25:11;14.47;;;6.10;;
10232;SDS011;5161;48.174;11.756;2023-10-09T00:27:37;16.90;;;6.07;;
10232;SDS011;5161;48.174;11.756;2023-10-09T00:30:06;20.03;;;6.20;;
10232;SDS011;5161;48.174;11.756;2023-10-09T00:32:33;18.50;;;6.10;;
10232;SDS011;5161;48.174;11.756;2023-10-09T00:35:02;22.93;;;7.03;;
10232;SDS011;5161;48.174;11.756;2023-10-09T00:37:48;19.97;;;6.60;;
10232;SDS011;5161;48.174;11.756;2023-10-09T00:40:16;24.07;;;6.93;;
10232;SDS011;5161;48.174;11.756;2023-10-09T00:42:46;17.30;;;6.63;;
10232;SDS011;5161;48.174;11.756;2023-10-09T00:45:13;19.10;;;6.77;;
10232;SDS011;5161;48.174;11.756;2023-10-09T00:47:49;21.33;;;6.80;;
10232;SDS011;5161;48.174;11.756;2023-10-09T00:50:16;18.70;;;6.70;;
10232;SDS011;5161;48.174;11.756;2023-10-09T00:52:46;21.07;;;6.33;;
10232;SDS011;5161;48.174;11.756;2023-10-09T00:55:19;19.80;;;6.97;;
10232;SDS011;5161;48.174;11.756;2023-10-09T00:57:47;19.23;;;6.40;;
10232;SDS011;5161;48.174;11.756;2023-10-09T01:00:24;17.60;;;6.40;;
10232;SDS011;5161;48.174;11.756;2023-10-09T01:02:59;19.13;;;6.30;;
10232;SDS011;5161;48.174;11.756;2023-10-09T01:05:45;24.70;;;6.70;;
10232;SDS011;5161;48.174;11.756;2023-10-09T01:08:22;20.97;;;6.70;;
10232;SDS011;5161;48.174;11.756;2023-10-09T01:10:56;20.27;;;6.50;;
10232;SDS011;5161;48.174;11.756;2023-10-09T01:13:33;22.07;;;6.73;;
10232;SDS011;5161;48.174;11.756;2023-10-09T01:16:15;19.63;;;6.40;;
10232;SDS011;5161;48.174;11.756;2023-10-09T01:18:51;18.40;;;6.23;;
10232;SDS011;5161;48.174;11.756;2023-10-09T01:21:24;18.77;;;6.30;;
10232;SDS011;5161;48.174;11.756;2023-10-09T01:23:51;19.27;;;6.67;;
10232;SDS011;5161;48.174;11.756;2023-10-09T01:26:27;18.27;;;6.60;;
10232;SDS011;5161;48.174;11.756;2023-10-09T01:28:59;20.33;;;6.80;;
10232;SDS011;5161;48.174;11.756;2023-10-09T01:31:25;19.57;;;6.20;;
10232;SDS011;5161;48.174;11.756;2023-10-09T01:33:52;26.47;;;6.90;;
10232;SDS011;5161;48.174;11.756;2023-10-09T01:36:24;19.07;;;6.30;;
10232;SDS011;5161;48.174;11.756;2023-10-09T01:38:58;17.50;;;6.70;;
10232;SDS011;5161;48.174;11.756;2023-10-09T01:41:24;20.03;;;6.53;;
10232;SDS011;5161;48.174;11.756;2023-10-09T01:43:50;20.70;;;7.10;;
10232;SDS011;5161;48.174;11.756;2023-10-09T01:46:16;19.90;;;6.53;;
10232;SDS011;5161;48.174;11.756;2023-10-09T01:48:44;19.23;;;6.23;;
10232;SDS011;5161;48.174;11.756;2023-10-09T01:51:15;21.30;;;6.27;;
10232;SDS011;5161;48.174;11.756;2023-10-09T01:53:46;21.60;;;6.60;;
10232;SDS011;5161;48.174;11.756;2023-10-09T01:56:21;23.40;;;6.53;;
10232;SDS011;5161;48.174;11.756;2023-10-09T01:58:47;22.27;;;6.30;;
10232;SDS011;5161;48.174;11.756;2023-10-09T02:01:15;19.83;;;6.10;;
10232;SDS011;5161;48.174;11.756;2023-10-09T02:03:41;17.60;;;6.03;;
10232;SDS011;5161;48.174;11.756;2023-10-09T02:06:08;19.93;;;6.10;;
10232;SDS011;5161;48.174;11.756;2023-10-09T02:09:03;23.47;;;6.40;;
10232;SDS011;5161;48.174;11.756;2023-10-09T02:11:31;18.67;;;6.93;;
10232;SDS011;5161;48.174;11.756;2023-10-09T02:14:08;18.47;;;6.40;;
10232;SDS011;5161;48.174;11.756;2023-10-09T02:16:49;18.07;;;6.80;;
10232;SDS011;5161;48.174;11.756;2023-10-09T02:19:35;19.40;;;6.50;;
10232;SDS011;5161;48.174;11.756;2023-10-09T02:22:01;20.80;;;6.37;;
10232;SDS011;5161;48.174;11.756;2023-10-09T02:24:37;16.20;;;6.30;;
10232;SDS011;5161;48.174;11.756;2023-10-09T02:27:16;18.27;;;6.97;;
10232;SDS011;5161;48.174;11.756;2023-10-09T02:29:51;22.50;;;6.53;;
10232;SDS011;5161;48.174;11.756;2023-10-09T02:32:17;23.13;;;6.10;;
10232;SDS011;5161;48.174;11.756;2023-10-09T02:34:50;20.40;;;6.17;;
10232;SDS011;5161;48.174;11.756;2023-10-09T02:37:18;15.37;;;5.90;;
10232;SDS011;5161;48.174;11.756;2023-10-09T02:39:50;18.57;;;5.97;;
10232;SDS011;5161;48.174;11.756;2023-10-09T02:42:17;16.27;;;5.93;;
10232;SDS011;5161;48.174;11.756;2023-10-09T02:44:53;19.97;;;6.33;;
10232;SDS011;5161;48.174;11.756;2023-10-09T02:47:19;16.57;;;6.13;;
10232;SDS011;5161;48.174;11.756;2023-10-09T02:49:55;17.10;;;6.40;;
10232;SDS011;5161;48.174;11.756;2023-10-09T02:52:26;20.43;;;6.67;;
10232;SDS011;5161;48.174;11.756;2023-10-09T02:54:57;19.77;;;6.37;;
10232;SDS011;5161;48.174;11.756;2023-10-09T02:57:32;20.53;;;6.00;;
10232;SDS011;5161;48.174;11.756;2023-10-09T03:00:07;17.83;;;6.50;;
10232;SDS011;5161;48.174;11.756;2023-10-09T03:02:53;15.97;;;6.00;;
10232;SDS011;5161;48.174;11.756;2023-10-09T03:05:23;19.10;;;6.10;;
10232;SDS011;5161;48.174;11.756;2023-10-09T03:07:56;17.97;;;6.47;;
10232;SDS011;5161;48.174;11.756;2023-10-09T03:10:22;20.40;;;5.93;;
10232;SDS011;5161;48.174;11.756;2023-10-09T03:12:47;18.97;;;5.80;;
10232;SDS011;5161;48.174;11.756;2023-10-09T03:15:18;18.03;;;5.70;;
10232;SDS011;5161;48.174;11.756;2023-10-09T03:17:45;15.90;;;6.10;;
10232;SDS011;5161;48.174;11.756;2023-10-09T03:20:12;18.10;;;6.20;;
10232;SDS011;5161;48.174;11.756;2023-10-09T03:22:39;19.10;;;6.47;;
10232;SDS011;5161;48.174;11.756;2023-10-09T03:25:06;25.77;;;6.50;;
10232;SDS011;5161;48.174;11.756;2023-10-09T03:27:45;18.77;;;6.07;;
10232;SDS011;5161;48.174;11.756;2023-10-09T03:30:12;16.97;;;6.27;;
10232;SDS011;5161;48.174;11.756;2023-10-09T03:32:57;14.40;;;6.00;;
10232;SDS011;5161;48.174;11.756;2023-10-09T03:35:25;16.77;;;5.73;;
10232;SDS011;5161;48.174;11.756;2023-10-09T03:37:53;21.73;;;6.17;;
10232;SDS011;5161;48.174;11.756;2023-10-09T03:40:22;15.57;;;5.53;;
10232;SDS011;5161;48.174;11.756;2023-10-09T03:42:48;17.77;;;6.03;;
10232;SDS011;5161;48.174;11.756;2023-10-09T03:45:14;14.13;;;5.97;;
10232;SDS011;5161;48.174;11.756;2023-10-09T03:47:53;16.73;;;5.60;;
10232;SDS011;5161;48.174;11.756;2023-10-09T03:50:46;22.73;;;6.33;;
10232;SDS011;5161;48.174;11.756;2023-10-09T03:53:13;19.27;;;6.00;;
10232;SDS011;5161;48.174;11.756;2023-10-09T03:55:39;23.20;;;6.43;;
10232;SDS011;5161;48.174;11.756;2023-10-09T03:58:08;14.47;;;5.70;;
10232;SDS011;5161;48.174;11.756;2023-10-09T04:00:37;16.73;;;6.00;;
10232;SDS011;5161;48.174;11.756;2023-10-09T04:03:12;19.33;;;5.90;;
10232;SDS011;5161;48.174;11.756;2023-10-09T04:05:39;18.17;;;6.07;;
10232;SDS011;5161;48.174;11.756;2023-10-09T04:08:07;14.30;;;5.60;;
10232;SDS011;5161;48.174;11.756;2023-10-09T04:10:54;20.13;;;6.10;;
10232;SDS011;5161;48.174;11.756;2023-10-09T04:13:26;17.07;;;5.80;;
10232;SDS011;5161;48.174;11.756;2023-10-09T04:15:59;20.87;;;6.33;;
10232;SDS011;5161;48.174;11.756;2023-10-09T04:18:46;14.57;;;5.70;;
10232;SDS011;5161;48.174;11.756;2023-10-09T04:21:12;10.93;;;5.77;;
10232;SDS011;5161;48.174;11.756;2023-10-09T04:23:44;20.67;;;6.40;;
10232;SDS011;5161;48.174;11.756;2023-10-09T04:26:30;19.10;;;6.30;;
10232;SDS011;5161;48.174;11.756;2023-10-09T04:28:59;10.17;;;5.37;;
10232;SDS011;5161;48.174;11.756;2023-10-09T04:31:27;17.20;;;5.90;;
10232;SDS011;5161;48.174;11.756;2023-10-09T04:33:57;12.13;;;5.77;;
10232;SDS011;5161;48.174;11.756;2023-10-09T04:36:41;14.40;;;5.20;;
10232;SDS011;5161;48.174;11.756;2023-10-09T04:39:14;15.20;;;6.43;;
10232;SDS011;5161;48.174;11.756;2023-10-09T04:41:50;17.87;;;5.90;;
10232;SDS011;5161;48.174;11.756;2023-10-09T04:44:17;20.47;;;6.53;;
10232;SDS011;5161;48.174;11.756;2023-10-09T04:46:54;14.30;;;5.87;;
10232;SDS011;5161;48.174;11.756;2023-10-09T04:49:36;15.30;;;6.40;;
10232;SDS011;5161;48.174;11.756;2023-10-09T04:52:18;19.23;;;6.00;;
10232;SDS011;5161;48.174;11.756;2023-10-09T04:54:50;20.63;;;6.47;;
10232;SDS011;5161;48.174;11.756;2023-10-09T04:57:31;21.30;;;6.27;;
10232;SDS011;5161;48.174;11.756;2023-10-09T05:00:05;15.53;;;6.27;;
10232;SDS011;5161;48.174;11.756;2023-10-09T05:02:49;15.30;;;6.03;;
10232;SDS011;5161;48.174;11.756;2023-10-09T05:05:32;19.27;;;5.87;;
10232;SDS011;5161;48.174;11.756;2023-10-09T05:08:18;18.40;;;6.37;;
10232;SDS011;5161;48.174;11.756;2023-10-09T05:10:53;17.80;;;6.10;;
10232;SDS011;5161;48.174;11.756;2023-10-09T05:13:23;19.53;;;6.40;;
10232;SDS011;5161;48.174;11.756;2023-10-09T05:18:38;23.70;;;5.93;;
10232;SDS011;5161;48.174;11.756;2023-10-09T05:21:04;19.57;;;5.93;;
10232;SDS011;5161;48.174;11.756;2023-10-09T05:23:49;17.63;;;5.97;;
10232;SDS011;5161;48.174;11.756;2023-10-09T05:26:34;23.67;;;7.00;;
10232;SDS011;5161;48.174;11.756;2023-10-09T05:29:13;25.80;;;6.87;;
10232;SDS011;5161;48.174;11.756;2023-10-09T05:31:48;15.63;;;6.00;;
10232;SDS011;5161;48.174;11.756;2023-10-09T05:34:33;21.40;;;6.07;;
10232;SDS011;5161;48.174;11.756;2023-10-09T05:37:03;19.37;;;6.50;;
10232;SDS011;5161;48.174;11.756;2023-10-09T05:39:50;21.60;;;7.00;;
10232;SDS011;5161;48.174;11.756;2023-10-09T05:42:26;23.17;;;6.10;;
10232;SDS011;5161;48.174;11.756;2023-10-09T05:45:11;20.83;;;6.80;;
10232;SDS011;5161;48.174;11.756;2023-10-09T05:47:57;17.97;;;6.40;;
10232;SDS011;5161;48.174;11.756;2023-10-09T05:50:28;19.40;;;6.07;;
10232;SDS011;5161;48.174;11.756;2023-10-09T05:53:03;20.93;;;6.30;;
10232;SDS011;5161;48.174;11.756;2023-10-09T05:56:03;21.13;;;6.00;;
10232;SDS011;5161;48.174;11.756;2023-10-09T05:58:47;20.03;;;6.40;;
10232;SDS011;5161;48.174;11.756;2023-10-09T06:01:31;22.10;;;6.37;;
10232;SDS011;5161;48.174;11.756;2023-10-09T06:04:15;20.97;;;7.17;;
10232;SDS011;5161;48.174;11.756;2023-10-09T06:06:42;20.93;;;7.77;;
10232;SDS011;5161;48.174;11.756;2023-10-09T06:09:10;21.60;;;7.87;;
10232;SDS011;5161;48.174;11.756;2023-10-09T06:11:40;29.10;;;8.33;;
10232;SDS011;5161;48.174;11.756;2023-10-09T06:14:19;28.97;;;7.90;;
10232;SDS011;5161;48.174;11.756;2023-10-09T06:16:55;26.20;;;7.73;;
10232;SDS011;5161;48.174;11.756;2023-10-09T06:19:21;27.37;;;8.00;;
10232;SDS011;5161;48.174;11.756;2023-10-09T06:21:48;27.37;;;7.83;;
10232;SDS011;5161;48.174;11.756;2023-10-09T06:24:17;24.77;;;6.90;;
10232;SDS011;5161;48.174;11.756;2023-10-09T06:26:48;25.90;;;6.67;;
10232;SDS011;5161;48.174;11.756;2023-10-09T06:29:23;36.50;;;7.77;;
10232;SDS011;5161;48.174;11.756;2023-10-09T06:32:05;33.97;;;7.33;;
10232;SDS011;5161;48.174;11.756;2023-10-09T06:35:00;23.07;;;7.13;;
10232;SDS011;5161;48.174;11.756;2023-10-09T06:37:43;21.93;;;6.50;;
10232;SDS011;5161;48.174;11.756;2023-10-09T06:40:28;29.53;;;6.93;;
10232;SDS011;5161;48.174;11.756;2023-10-09T06:43:20;22.83;;;6.23;;
10232;SDS011;5161;48.174;11.756;2023-10-09T06:45:46;27.80;;;6.90;;
10232;SDS011;5161;48.174;11.756;2023-10-09T06:48:19;25.13;;;6.50;;
10232;SDS011;5161;48.174;11.756;2023-10-09T06:51:03;17.50;;;6.03;;
10232;SDS011;5161;48.174;11.756;2023-10-09T06:53:53;24.53;;;6.37;;
10232;SDS011;5161;48.174;11.756;2023-10-09T06:56:23;27.60;;;6.77;;
10232;SDS011;5161;48.174;11.756;2023-10-09T07:01:23;30.27;;;7.03;;
10232;SDS011;5161;48.174;11.756;2023-10-09T07:04:07;31.03;;;6.57;;
10232;SDS011;5161;48.174;11.756;2023-10-09T07:07:06;35.47;;;7.13;;
10232;SDS011;5161;48.174;11.756;2023-10-09T07:09:38;24.33;;;6.30;;
10232;SDS011;5161;48.174;11.756;2023-10-09T07:12:22;18.40;;;6.07;;
10232;SDS011;5161;48.174;11.756;2023-10-09T07:14:51;31.93;;;6.97;;
10232;SDS011;5161;48.174;11.756;2023-10-09T07:17:32;25.27;;;5.73;;
10232;SDS011;5161;48.174;11.756;2023-10-09T07:20:00;27.13;;;6.43;;
10232;SDS011;5161;48.174;11.756;2023-10-09T07:22:39;29.30;;;6.07;;
10232;SDS011;5161;48.174;11.756;2023-10-09T07:25:18;24.87;;;5.87;;
10232;SDS011;5161;48.174;11.756;2023-10-09T07:28:04;26.97;;;6.17;;
10232;SDS011;5161;48.174;11.756;2023-10-09T07:30:43;19.77;;;6.03;;
10232;SDS011;5161;48.174;11.756;2023-10-09T07:33:09;37.23;;;5.87;;
10232;SDS011;5161;48.174;11.756;2023-10-09T07:35:43;21.47;;;5.63;;
10232;SDS011;5161;48.174;11.756;2023-10-09T07:38:18;25.07;;;5.93;;
10232;SDS011;5161;48.174;11.756;2023-10-09T07:40:46;21.93;;;5.57;;
10232;SDS011;5161;48.174;11.756;2023-10-09T07:43:45;25.63;;;5.20;;
10232;SDS011;5161;48.174;11.756;2023-10-09T07:48:56;28.00;;;5.13;;
10232;SDS011;5161;48.174;11.756;2023-10-09T07:51:25;20.93;;;5.20;;
10232;SDS011;5161;48.174;11.756;2023-10-09T07:53:57;20.30;;;4.97;;
10232;SDS011;5161;48.174;11.756;2023-10-09T07:56:37;20.13;;;4.43;;
10232;SDS011;5161;48.174;11.756;2023-10-09T07:59:08;26.83;;;5.67;;
10232;SDS011;5161;48.174;11.756;2023-10-09T08:01:43;22.93;;;4.73;;
10232;SDS011;5161;48.174;11.756;2023-10-09T08:04:20;21.27;;;4.97;;
10232;SDS011;5161;48.174;11.756;2023-10-09T08:07:06;20.00;;;5.23;;
10232;SDS011;5161;48.174;11.756;2023-10-09T08:09:34;26.00;;;4.73;;
10232;SDS011;5161;48.174;11.756;2023-10-09T08:12:15;19.83;;;4.93;;
10232;SDS011;5161;48.174;11.756;2023-10-09T08:15:00;20.13;;;4.80;;
10232;SDS011;5161;48.174;11.756;2023-10-09T08:17:56;20.33;;;4.70;;
10232;SDS011;5161;48.174;11.756;2023-10-09T08:20:28;18.07;;;4.57;;
10232;SDS011;5161;48.174;11.756;2023-10-09T08:23:15;14.93;;;4.73;;
10232;SDS011;5161;48.174;11.756;2023-10-09T08:26:08;16.70;;;4.33;;
10232;SDS011;5161;48.174;11.756;2023-10-09T08:28:52;17.50;;;4.70;;
10232;SDS011;5161;48.174;11.756;2023-10-09T08:31:19;24.67;;;5.53;;
10232;SDS011;5161;48.174;11.756;2023-10-09T08:34:00;16.53;;;4.63;;
10232;SDS011;5161;48.174;11.756;2023-10-09T08:36:26;21.37;;;4.90;;
10232;SDS011;5161;48.174;11.756;2023-10-09T08:38:56;29.67;;;5.60;;
10232;SDS011;5161;48.174;11.756;2023-10-09T08:41:24;26.57;;;5.53;;
10232;SDS011;5161;48.174;11.756;2023-10-09T08:43:55;21.33;;;4.83;;
10232;SDS011;5161;48.174;11.756;2023-10-09T08:46:25;18.47;;;4.93;;
10232;SDS011;5161;48.174;11.756;2023-10-09T08:48:53;20.77;;;4.93;;
10232;SDS011;5161;48.174;11.756;2023-10-09T08:51:20;27.77;;;5.23;;
10232;SDS011;5161;48.174;11.756;2023-10-09T08:53:47;18.37;;;4.80;;
10232;SDS011;5161;48.174;11.756;2023-10-09T08:56:13;20.30;;;4.50;;
10232;SDS011;5161;48.174;11.756;2023-10-09T08:58:47;31.83;;;5.17;;
10232;SDS011;5161;48.174;11.756;2023-10-09T09:01:22;24.67;;;5.17;;
10232;SDS011;5161;48.174;11.756;2023-10-09T09:03:52;17.07;;;5.37;;
10232;SDS011;5161;48.174;11.756;2023-10-09T09:06:20;25.27;;;4.93;;
10232;SDS011;5161;48.174;11.756;2023-10-09T09:08:48;24.77;;;5.10;;
10232;SDS011;5161;48.174;11.756;2023-10-09T09:11:24;24.37;;;4.80;;
10232;SDS011;5161;48.174;11.756;2023-10-09T09:16:28;23.87;;;5.23;;
10232;SDS011;5161;48.174;11.756;2023-10-09T09:18:55;30.43;;;5.27;;
10232;SDS011;5161;48.174;11.756;2023-10-09T09:21:30;23.70;;;4.73;;
10232;SDS011;5161;48.174;11.756;2023-10-09T09:24:05;28.07;;;5.07;;
10232;SDS011;5161;48.174;11.756;2023-10-09T09:26:54;31.00;;;4.97;;
10232;SDS011;5161;48.174;11.756;2023-10-09T09:32:05;15.57;;;4.20;;
10232;SDS011;5161;48.174;11.756;2023-10-09T09:34:47;23.60;;;5.17;;
10232;SDS011;5161;48.174;11.756;2023-10-09T09:37:23;20.47;;;4.80;;
10232;SDS011;5161;48.174;11.756;2023-10-09T09:40:00;24.03;;;5.33;;
10232;SDS011;5161;48.174;11.756;2023-10-09T09:42:47;20.83;;;4.77;;
10232;SDS011;5161;48.174;11.756;2023-10-09T09:45:14;19.53;;;4.60;;
10232;SDS011;5161;48.174;11.756;2023-10-09T09:47:45;26.47;;;4.77;;
10232;SDS011;5161;48.174;11.756;2023-10-09T09:50:18;18.47;;;5.07;;
10232;SDS011;5161;48.174;11.756;2023-10-09T09:52:54;33.63;;;5.83;;
10232;SDS011;5161;48.174;11.756;2023-10-09T09:55:32;24.40;;;5.00;;
10232;SDS011;5161;48.174;11.756;2023-10-09T09:58:00;20.43;;;4.77;;
10232;SDS011;5161;48.174;11.756;2023-10-09T10:00:51;23.67;;;4.70;;
10232;SDS011;5161;48.174;11.756;2023-10-09T10:03:26;22.27;;;4.77;;
10232;SDS011;5161;48.174;11.756;2023-10-09T10:05:57;21.50;;;4.60;;
10232;SDS011;5161;48.174;11.756;2023-10-09T10:08:35;19.13;;;4.77;;
10232;SDS011;5161;48.174;11.756;2023-10-09T10:11:04;18.80;;;4.53;;
10232;SDS011;5161;48.174;11.756;2023-10-09T10:16:12;16.30;;;4.73;;
10232;SDS011;5161;48.174;11.756;2023-10-09T10:19:00;23.57;;;4.83;;
10232;SDS011;5161;48.174;11.756;2023-10-09T10:21:36;16.67;;;5.00;;
10232;SDS011;5161;48.174;11.756;2023-10-09T10:32:54;23.67;;;4.83;;
10232;SDS011;5161;48.174;11.756;2023-10-09T10:35:22;23.80;;;4.67;;
10232;SDS011;5161;48.174;11.756;2023-10-09T10:38:01;19.23;;;5.13;;
10232;SDS011;5161;48.174;11.756;2023-10-09T10:40:36;20.33;;;5.10;;
10232;SDS011;5161;48.174;11.756;2023-10-09T10:43:17;29.27;;;5.30;;
10232;SDS011;5161;48.174;11.756;2023-10-09T10:46:05;20.90;;;4.90;;
10232;SDS011;5161;48.174;11.756;2023-10-09T10:49:01;20.23;;;5.23;;
10232;SDS011;5161;48.174;11.756;2023-10-09T10:51:40;22.33;;;5.30;;
10232;SDS011;5161;48.174;11.756;2023-10-09T10:54:07;23.30;;;5.77;;
10232;SDS011;5161;48.174;11.756;2023-10-09T10:57:28;20.80;;;5.03;;
10232;SDS011;5161;48.174;11.756;2023-10-09T10:59:54;20.43;;;5.20;;
10232;SDS011;5161;48.174;11.756;2023-10-09T11:02:38;28.27;;;5.27;;
10232;SDS011;5161;48.174;11.756;2023-10-09T11:05:05;25.73;;;5.70;;
10232;SDS011;5161;48.174;11.756;2023-10-09T11:07:49;32.20;;;5.53;;
10232;SDS011;5161;48.174;11.756;2023-10-09T11:10:21;28.00;;;5.60;;
10232;SDS011;5161;48.174;11.756;2023-10-09T11:12:53;29.33;;;5.77;;
10232;SDS011;5161;48.174;11.756;2023-10-09T11:15:32;28.10;;;6.17;;
10232;SDS011;5161;48.174;11.756;2023-10-09T11:18:13;18.97;;;5.67;;
10232;SDS011;5161;48.174;11.756;2023-10-09T11:20:51;24.57;;;5.90;;
10232;SDS011;5161;48.174;11.756;2023-10-09T11:23:31;24.93;;;5.80;;
10232;SDS011;5161;48.174;11.756;2023-10-09T11:26:01;23.03;;;5.87;;
10232;SDS011;5161;48.174;11.756;2023-10-09T11:29:08;25.93;;;5.43;;
10232;SDS011;5161;48.174;11.756;2023-10-09T11:31:57;35.70;;;6.07;;
10232;SDS011;5161;48.174;11.756;2023-10-09T11:34:34;24.43;;;5.63;;
10232;SDS011;5161;48.174;11.756;2023-10-09T11:39:37;33.80;;;6.17;;
10232;SDS011;5161;48.174;11.756;2023-10-09T11:42:17;32.10;;;6.10;;
10232;SDS011;5161;48.174;11.756;2023-10-09T11:45:01;23.63;;;6.20;;
10232;SDS011;5161;48.174;11.756;2023-10-09T11:47:44;26.13;;;6.10;;
10232;SDS011;5161;48.174;11.756;2023-10-09T11:53:16;31.93;;;6.57;;
10232;SDS011;5161;48.174;11.756;2023-10-09T11:56:03;28.67;;;5.70;;
10232;SDS011;5161;48.174;11.756;2023-10-09T11:58:29;23.27;;;5.73;;
10232;SDS011;5161;48.174;11.756;2023-10-09T12:00:55;31.70;;;5.97;;
10232;SDS011;5161;48.174;11.756;2023-10-09T12:03:27;33.43;;;6.33;;
10232;SDS011;5161;48.174;11.756;2023-10-09T12:05:58;27.30;;;5.63;;
10232;SDS011;5161;48.174;11.756;2023-10-09T12:08:37;26.97;;;5.70;;
10232;SDS011;5161;48.174;11.756;2023-10-09T12:11:03;26.10;;;5.70;;
10232;SDS011;5161;48.174;11.756;2023-10-09T12:13:33;30.13;;;6.30;;
10232;SDS011;5161;48.174;11.756;2023-10-09T12:15:58;27.87;;;6.27;;
10232;SDS011;5161;48.174;11.756;2023-10-09T12:18:24;22.33;;;5.67;;
10232;SDS011;5161;48.174;11.756;2023-10-09T12:20:50;31.80;;;6.80;;
10232;SDS011;5161;48.174;11.756;2023-10-09T12:23:22;22.33;;;5.17;;
10232;SDS011;5161;48.174;11.756;2023-10-09T12:25:52;30.50;;;5.80;;
10232;SDS011;5161;48.174;11.756;2023-10-09T12:28:21;25.03;;;5.80;;
10232;SDS011;5161;48.174;11.756;2023-10-09T12:30:47;27.07;;;6.40;;
10232;SDS011;5161;48.174;11.756;2023-10-09T12:33:17;30.17;;;6.03;;
10232;SDS011;5161;48.174;11.756;2023-10-09T12:35:44;24.40;;;6.20;;
10232;SDS011;5161;48.174;11.756;2023-10-09T12:38:11;28.47;;;5.70;;
10232;SDS011;5161;48.174;11.756;2023-10-09T12:40:38;28.80;;;5.30;;
10232;SDS011;5161;48.174;11.756;2023-10-09T12:43:15;23.57;;;5.77;;
10232;SDS011;5161;48.174;11.756;2023-10-09T12:45:45;26.97;;;5.67;;
10232;SDS011;5161;48.174;11.756;2023-10-09T12:48:11;25.20;;;5.97;;
10232;SDS011;5161;48.174;11.756;2023-10-09T12:50:37;29.77;;;6.13;;
10232;SDS011;5161;48.174;11.756;2023-10-09T12:53:07;23.10;;;5.57;;
10232;SDS011;5161;48.174;11.756;2023-10-09T12:55:40;28.60;;;5.90;;
10232;SDS011;5161;48.174;11.756;2023-10-09T12:58:09;31.87;;;5.83;;
10232;SDS011;5161;48.174;11.756;2023-10-09T13:00:39;29.67;;;5.90;;
10232;SDS011;5161;48.174;11.756;2023-10-09T13:03:28;28.57;;;6.70;;
10232;SDS011;5161;48.174;11.756;2023-10-09T13:05:57;38.93;;;6.23;;
10232;SDS011;5161;48.174;11.756;2023-10-09T13:08:26;23.87;;;5.67;;
10232;SDS011;5161;48.174;11.756;2023-10-09T13:10:57;30.07;;;5.67;;
10232;SDS011;5161;48.174;11.756;2023-10-09T13:13:29;25.47;;;5.30;;
10232;SDS011;5161;48.174;11.756;2023-10-09T13:16:17;31.37;;;5.43;;
10232;SDS011;5161;48.174;11.756;2023-10-09T13:18:50;19.33;;;5.53;;
10232;SDS011;5161;48.174;11.756;2023-10-09T13:21:20;29.57;;;5.60;;
10232;SDS011;5161;48.174;11.756;2023-10-09T13:23:48;29.30;;;5.63;;
10232;SDS011;5161;48.174;11.756;2023-10-09T13:26:22;23.83;;;5.73;;
10232;SDS011;5161;48.174;11.756;2023-10-09T13:28:51;25.93;;;5.97;;
10232;SDS011;5161;48.174;11.756;2023-10-09T13:31:18;28.07;;;6.33;;
10232;SDS011;5161;48.174;11.756;2023-10-09T13:33:46;23.00;;;5.60;;
10232;SDS011;5161;48.174;11.756;2023-10-09T13:36:13;34.37;;;6.47;;
10232;SDS011;5161;48.174;11.756;2023-10-09T13:38:44;26.70;;;6.07;;
10232;SDS011;5161;48.174;11.756;2023-10-09T13:41:10;26.70;;;7.03;;
10232;SDS011;5161;48.174;11.756;2023-10-09T13:43:40;34.57;;;6.43;;
10232;SDS011;5161;48.174;11.756;2023-10-09T13:46:08;22.77;;;5.83;;
10232;SDS011;5161;48.174;11.756;2023-10-09T13:48:34;26.00;;;6.13;;
10232;SDS011;5161;48.174;11.756;2023-10-09T13:51:09;30.00;;;6.00;;
10232;SDS011;5161;48.174;11.756;2023-10-09T13:53:39;27.33;;;6.57;;
10232;SDS011;5161;48.174;11.756;2023-10-09T13:56:19;27.23;;;6.40;;
10232;SDS011;5161;48.174;11.756;2023-10-09T13:58:52;21.43;;;6.17;;
10232;SDS011;5161;48.174;11.756;2023-10-09T14:01:20;27.73;;;5.47;;
10232;SDS011;5161;48.174;11.756;2023-10-09T14:03:57;23.97;;;6.13;;
10232;SDS011;5161;48.174;11.756;2023-10-09T14:06:25;39.03;;;6.20;;
10232;SDS011;5161;48.174;11.756;2023-10-09T14:08:58;25.20;;;5.83;;
10232;SDS011;5161;48.174;11.756;2023-10-09T14:11:34;25.13;;;6.00;;
10232;SDS011;5161;48.174;11.756;2023-10-09T14:14:04;25.43;;;6.20;;
10232;SDS011;5161;48.174;11.756;2023-10-09T14:16:35;27.97;;;5.40;;
10232;SDS011;5161;48.174;11.756;2023-10-09T14:19:01;19.70;;;5.30;;
10232;SDS011;5161;48.174;11.756;2023-10-09T14:21:32;18.80;;;5.37;;
10232;SDS011;5161;48.174;11.756;2023-10-09T14:24:00;19.07;;;5.63;;
10232;SDS011;5161;48.174;11.756;2023-10-09T14:26:26;21.13;;;5.43;;
10232;SDS011;5161;48.174;11.756;2023-10-09T14:28:56;28.87;;;5.93;;
10232;SDS011;5161;48.174;11.756;2023-10-09T14:31:25;22.90;;;5.83;;
10232;SDS011;5161;48.174;11.756;2023-10-09T14:33:55;25.57;;;5.40;;
10232;SDS011;5161;48.174;11.756;2023-10-09T14:36:22;24.23;;;5.70;;
10232;SDS011;5161;48.174;11.756;2023-10-09T14:38:49;17.13;;;5.57;;
10232;SDS011;5161;48.174;11.756;2023-10-09T14:41:18;24.87;;;5.10;;
10232;SDS011;5161;48.174;11.756;2023-10-09T14:43:48;18.67;;;5.40;;
10232;SDS011;5161;48.174;11.756;2023-10-09T14:46:14;19.40;;;5.60;;
10232;SDS011;5161;48.174;11.756;2023-10-09T14:48:42;25.13;;;6.33;;
10232;SDS011;5161;48.174;11.756;2023-10-09T14:51:11;28.73;;;5.93;;
10232;SDS011;5161;48.174;11.756;2023-10-09T14:53:38;17.13;;;5.30;;
10232;SDS011;5161;48.174;11.756;2023-10-09T14:56:05;23.77;;;5.37;;
10232;SDS011;5161;48.174;11.756;2023-10-09T14:58:34;24.57;;;5.77;;
10232;SDS011;5161;48.174;11.756;2023-10-09T15:01:08;22.43;;;5.70;;
10232;SDS011;5161;48.174;11.756;2023-10-09T15:03:40;25.30;;;6.37;;
10232;SDS011;5161;48.174;11.756;2023-10-09T15:06:08;19.93;;;5.50;;
10232;SDS011;5161;48.174;11.756;2023-10-09T15:08:36;21.07;;;5.93;;
10232;SDS011;5161;48.174;11.756;2023-10-09T15:11:02;20.70;;;5.93;;
10232;SDS011;5161;48.174;11.756;2023-10-09T15:13:28;27.97;;;6.23;;
10232;SDS011;5161;48.174;11.756;2023-10-09T15:15:56;21.97;;;5.90;;
10232;SDS011;5161;48.174;11.756;2023-10-09T15:18:22;19.53;;;5.87;;
10232;SDS011;5161;48.174;11.756;2023-10-09T15:20:48;28.67;;;6.57;;
10232;SDS011;5161;48.174;11.756;2023-10-09T15:23:14;16.67;;;5.67;;
10232;SDS011;5161;48.174;11.756;2023-10-09T15:25:40;20.73;;;6.07;;
10232;SDS011;5161;48.174;11.756;2023-10-09T15:28:10;21.30;;;6.50;;
10232;SDS011;5161;48.174;11.756;2023-10-09T15:30:37;21.00;;;6.03;;
10232;SDS011;5161;48.174;11.756;2023-10-09T15:33:06;19.83;;;5.57;;
10232;SDS011;5161;48.174;11.756;2023-10-09T15:35:33;28.97;;;6.07;;
10232;SDS011;5161;48.174;11.756;2023-10-09T15:37:59;21.20;;;5.63;;
10232;SDS011;5161;48.174;11.756;2023-10-09T15:40:32;19.03;;;5.30;;
10232;SDS011;5161;48.174;11.756;2023-10-09T15:43:01;24.33;;;6.10;;